Time;durP1;ratioP1;P1;durP2;ratioP2;P2;SDS_P1;SDS_P2;PMS_P1;PMS_P2;Temp;Humidity;BMP_temperature;BMP_pressure;BME280_temperature;BME280_humidity;BME280_pressure;Samples;Min_cycle;Max_cycle;Signal;HPM_P1;HPM_P2
2023/01/09 00:00:24;;;;;;;5.68;1.48;;;7.30;99.90;;;;;;5070106;28;20052;-50
2023/01/09 00:02:50;;;;;;;6.68;1.80;;;7.50;99.90;;;;;;5070366;28;20040;-49
2023/01/09 00:05:17;;;;;;;6.32;1.70;;;7.20;99.90;;;;;;5069771;28;20040;-50
2023/01/09 00:07:43;;;;;;;4.93;1.63;;;7.20;99.90;;;;;;5068896;28;20028;-52
2023/01/09 00:10:10;;;;;;;6.05;1.50;;;7.20;99.90;;;;;;5068549;28;20044;-48
2023/01/09 00:12:36;;;;;;;5.22;1.52;;;7.40;99.90;;;;;;5070281;28;20033;-51
2023/01/09 00:15:03;;;;;;;7.07;1.80;;;7.40;99.90;;;;;;5066917;28;20036;-49
2023/01/09 00:17:29;;;;;;;4.38;1.40;;;7.30;99.90;;;;;;5075069;28;20089;-50
2023/01/09 00:19:54;;;;;;;5.68;1.70;;;7.10;99.90;;;;;;5070406;28;20118;-49
2023/01/09 00:22:20;;;;;;;5.43;1.65;;;7.10;99.90;;;;;;5073325;28;20504;-49
2023/01/09 00:24:46;;;;;;;5.45;1.40;;;7.30;99.90;;;;;;5072445;28;20032;-48
2023/01/09 00:27:13;;;;;;;7.00;1.35;;;7.20;99.90;;;;;;5072471;28;20044;-49
2023/01/09 00:29:40;;;;;;;4.38;1.30;;;6.90;99.90;;;;;;5073763;28;20111;-47
2023/01/09 00:32:09;;;;;;;3.78;1.50;;;7.10;99.90;;;;;;5073366;28;20060;-50
2023/01/09 00:34:36;;;;;;;3.80;1.38;;;7.10;99.90;;;;;;5072817;28;20149;-52
2023/01/09 00:37:02;;;;;;;5.03;1.50;;;7.00;99.90;;;;;;5073545;28;20049;-50
2023/01/09 00:39:28;;;;;;;4.00;1.40;;;7.00;99.90;;;;;;5073389;28;20052;-51
2023/01/09 00:41:55;;;;;;;4.97;1.40;;;7.20;99.90;;;;;;5073250;28;20032;-48
2023/01/09 00:44:23;;;;;;;5.68;1.20;;;7.20;99.90;;;;;;5072885;28;20068;-50
2023/01/09 00:46:57;;;;;;;4.50;1.70;;;7.00;99.90;;;;;;5073013;28;20029;-52
2023/01/09 00:49:23;;;;;;;4.00;1.23;;;6.90;99.90;;;;;;5079808;28;20450;-51
2023/01/09 00:51:49;;;;;;;3.58;1.30;;;6.90;99.90;;;;;;5073259;28;20032;-50
2023/01/09 00:54:18;;;;;;;3.92;1.30;;;7.10;99.90;;;;;;5073615;28;20161;-49
2023/01/09 00:56:44;;;;;;;2.90;1.25;;;6.90;99.90;;;;;;5071285;28;20056;-48
2023/01/09 00:59:10;;;;;;;3.25;1.35;;;6.90;99.90;;;;;;5079354;28;20051;-48
2023/01/09 01:01:36;;;;;;;4.65;1.50;;;7.10;99.90;;;;;;5073888;28;20395;-50
2023/01/09 01:07:37;;;;;;;3.50;1.40;;;6.90;99.90;;;;;;5071249;28;20029;-49
2023/01/09 01:09:31;;;;;;;4.13;1.50;;;7.20;99.90;;;;;;5073665;28;20372;-49
2023/01/09 01:11:57;;;;;;;3.45;1.92;;;6.90;99.90;;;;;;5072780;28;20055;-51
2023/01/09 01:14:22;;;;;;;5.68;1.70;;;7.10;99.90;;;;;;5072962;28;20048;-49
2023/01/09 01:16:48;;;;;;;5.47;1.73;;;7.00;99.90;;;;;;5072323;28;20064;-52
2023/01/09 01:19:14;;;;;;;4.15;1.38;;;6.80;99.90;;;;;;5071921;28;20048;-50
2023/01/09 01:21:39;;;;;;;5.40;2.10;;;7.00;99.90;;;;;;5072127;28;20040;-49
2023/01/09 01:24:05;;;;;;;5.97;1.58;;;6.70;99.90;;;;;;5072175;28;20102;-46
2023/01/09 01:26:31;;;;;;;6.00;2.00;;;6.80;99.90;;;;;;5071981;28;20449;-49
2023/01/09 01:28:57;;;;;;;5.88;1.92;;;7.00;99.90;;;;;;5072061;28;20050;-50
2023/01/09 01:31:23;;;;;;;5.78;1.73;;;6.80;99.90;;;;;;5071970;28;20123;-50
2023/01/09 01:33:49;;;;;;;4.70;1.73;;;6.70;99.90;;;;;;5071103;28;20452;-52
2023/01/09 01:36:16;;;;;;;6.88;1.90;;;6.80;99.90;;;;;;5072040;28;20492;-48
2023/01/09 01:38:43;;;;;;;4.68;1.85;;;6.60;99.90;;;;;;5072142;28;20064;-49
2023/01/09 01:41:09;;;;;;;8.52;2.08;;;6.80;99.90;;;;;;5072329;28;20044;-46
2023/01/09 01:43:53;;;;;;;5.35;2.00;;;6.50;99.90;;;;;;5074984;28;20036;-47
2023/01/09 01:46:19;;;;;;;7.85;2.20;;;6.60;99.90;;;;;;5079557;28;20033;-49
2023/01/09 01:48:47;;;;;;;6.03;2.20;;;6.70;99.90;;;;;;5071616;28;20038;-52
2023/01/09 01:51:15;;;;;;;9.23;2.40;;;6.60;99.90;;;;;;5072078;28;20040;-47
2023/01/09 01:53:46;;;;;;;7.72;2.45;;;6.60;99.90;;;;;;5071378;28;20044;-50
2023/01/09 01:56:27;;;;;;;5.72;2.30;;;6.60;99.90;;;;;;5071782;28;20037;-50
2023/01/09 01:59:08;;;;;;;5.05;1.90;;;6.60;99.90;;;;;;5081943;28;20448;-50
2023/01/09 02:01:37;;;;;;;8.60;2.10;;;6.40;99.90;;;;;;5071443;28;20522;-50
2023/01/09 02:04:03;;;;;;;7.38;2.28;;;6.40;99.90;;;;;;5071516;28;20043;-47
2023/01/09 02:06:32;;;;;;;6.07;2.10;;;6.50;99.90;;;;;;5071615;28;20080;-52
2023/01/09 02:08:58;;;;;;;6.88;1.98;;;6.20;99.90;;;;;;5070644;28;20029;-48
2023/01/09 02:11:24;;;;;;;4.80;2.35;;;6.30;99.90;;;;;;5071365;28;20048;-47
2023/01/09 02:13:50;;;;;;;9.02;2.45;;;6.20;99.90;;;;;;5071416;28;20052;-48
2023/01/09 02:16:46;;;;;;;6.40;2.10;;;6.40;99.90;;;;;;5071302;28;20044;-48
2023/01/09 02:20:01;;;;;;;5.95;2.10;;;6.00;99.90;;;;;;5070993;28;20041;-47
2023/01/09 02:22:36;;;;;;;6.93;2.13;;;6.00;99.90;;;;;;5071098;28;20040;-50
2023/01/09 02:25:13;;;;;;;4.85;1.90;;;6.20;99.90;;;;;;5071217;28;20123;-48
2023/01/09 02:28:19;;;;;;;7.03;2.17;;;6.00;99.90;;;;;;5071158;28;20033;-47
2023/01/09 02:31:00;;;;;;;6.85;2.65;;;5.90;99.90;;;;;;5071189;28;20036;-49
2023/01/09 02:33:39;;;;;;;5.57;2.53;;;6.10;99.90;;;;;;5069664;28;20479;-50
2023/01/09 02:36:11;;;;;;;7.80;2.47;;;6.10;99.90;;;;;;5069447;28;20067;-50
2023/01/09 02:39:02;;;;;;;7.85;2.53;;;5.70;99.90;;;;;;5069469;28;20048;-48
2023/01/09 02:41:39;;;;;;;10.30;3.25;;;5.90;99.90;;;;;;5068684;28;20041;-47
2023/01/09 02:44:25;;;;;;;8.90;2.63;;;5.80;99.90;;;;;;5070177;28;20037;-50
2023/01/09 02:47:16;;;;;;;5.22;2.33;;;5.90;99.90;;;;;;5070967;28;20029;-48
2023/01/09 02:49:53;;;;;;;7.80;3.00;;;5.60;99.90;;;;;;5072237;28;20029;-50
2023/01/09 02:52:37;;;;;;;8.20;2.80;;;5.80;99.90;;;;;;5070844;28;20068;-50
2023/01/09 02:55:24;;;;;;;5.93;2.80;;;5.50;99.90;;;;;;5079524;28;20044;-47
2023/01/09 02:58:03;;;;;;;9.32;2.70;;;5.70;99.90;;;;;;5070544;28;20055;-49
2023/01/09 03:00:38;;;;;;;4.88;2.50;;;5.40;99.90;;;;;;5070515;28;20055;-49
2023/01/09 03:03:57;;;;;;;5.55;2.72;;;5.60;99.90;;;;;;5071132;28;20041;-47
2023/01/09 03:06:38;;;;;;;8.55;3.20;;;5.30;99.90;;;;;;5047957;28;20033;-47
2023/01/09 03:09:13;;;;;;;9.63;2.80;;;5.20;99.90;;;;;;5047605;28;20123;-50
2023/01/09 03:11:42;;;;;;;10.02;3.53;;;5.40;99.90;;;;;;5063790;28;20132;-49
2023/01/09 03:14:18;;;;;;;9.43;2.97;;;5.50;99.90;;;;;;5069947;28;20040;-49
2023/01/09 03:16:51;;;;;;;10.20;3.15;;;5.50;99.90;;;;;;5070774;28;20376;-49
2023/01/09 03:19:20;;;;;;;9.18;3.75;;;5.10;99.90;;;;;;5070260;28;20084;-47
2023/01/09 03:21:46;;;;;;;7.88;3.33;;;5.50;99.90;;;;;;5070903;28;20470;-50
2023/01/09 03:24:12;;;;;;;10.45;3.85;;;5.20;99.90;;;;;;5070683;28;20036;-48
2023/01/09 03:26:39;;;;;;;6.93;3.65;;;5.40;99.90;;;;;;5070610;28;20037;-48
2023/01/09 03:29:04;;;;;;;12.20;3.95;;;5.20;99.90;;;;;;5070161;28;20036;-47
2023/01/09 03:31:30;;;;;;;11.23;4.07;;;5.10;99.90;;;;;;5075152;28;20387;-50
2023/01/09 03:33:56;;;;;;;9.13;4.80;;;5.00;99.90;;;;;;5068517;28;20040;-48
2023/01/09 03:36:22;;;;;;;10.02;4.65;;;5.40;99.90;;;;;;5071527;28;20044;-50
2023/01/09 03:38:48;;;;;;;10.55;4.55;;;5.00;99.90;;;;;;5070470;28;20055;-49
2023/01/09 03:41:14;;;;;;;12.43;5.63;;;5.00;99.90;;;;;;5075492;28;20037;-49
2023/01/09 03:43:40;;;;;;;11.20;5.65;;;5.20;99.90;;;;;;5070180;28;20092;-50
2023/01/09 03:46:05;;;;;;;9.63;5.18;;;5.00;99.90;;;;;;5070617;28;20041;-49
2023/01/09 03:48:31;;;;;;;10.43;5.72;;;4.90;99.90;;;;;;5070128;28;20044;-49
2023/01/09 03:50:57;;;;;;;12.77;6.38;;;5.30;99.90;;;;;;5071507;28;20085;-49
2023/01/09 03:53:26;;;;;;;15.07;6.65;;;5.00;99.90;;;;;;5072928;28;20127;-50
2023/01/09 03:55:54;;;;;;;15.55;7.90;;;4.80;99.90;;;;;;5070688;28;20040;-52
2023/01/09 03:58:20;;;;;;;14.52;8.73;;;5.00;99.90;;;;;;5076011;28;20071;-50
2023/01/09 04:00:51;;;;;;;20.55;9.57;;;5.00;99.90;;;;;;5073997;28;20091;-50
2023/01/09 04:03:19;;;;;;;14.50;9.68;;;5.10;99.90;;;;;;5072751;28;20041;-47
2023/01/09 04:05:46;;;;;;;15.32;9.13;;;5.00;99.90;;;;;;5072233;28;20049;-47
2023/01/09 04:08:12;;;;;;;18.48;9.80;;;5.30;99.90;;;;;;5073839;28;20048;-46
2023/01/09 04:10:39;;;;;;;19.83;10.13;;;5.20;99.90;;;;;;5074012;28;20078;-50
2023/01/09 04:13:04;;;;;;;18.30;9.80;;;4.90;99.90;;;;;;5086059;28;20141;-46
2023/01/09 04:15:30;;;;;;;14.32;9.30;;;4.60;99.90;;;;;;5077466;28;20127;-51
2023/01/09 04:17:56;;;;;;;16.50;10.13;;;4.80;99.90;;;;;;5073817;28;20044;-49
2023/01/09 04:20:21;;;;;;;26.60;10.73;;;4.60;99.90;;;;;;5073779;28;20048;-50
2023/01/09 04:22:47;;;;;;;17.00;10.43;;;4.60;99.90;;;;;;5073292;28;20121;-48
2023/01/09 04:25:13;;;;;;;18.00;11.23;;;5.10;99.90;;;;;;5070999;28;20123;-51
2023/01/09 04:27:39;;;;;;;18.38;11.00;;;4.80;99.90;;;;;;5073407;28;20479;-50
2023/01/09 04:30:05;;;;;;;22.95;11.60;;;5.00;99.90;;;;;;5072592;28;20029;-51
2023/01/09 04:32:31;;;;;;;23.55;11.60;;;4.50;99.90;;;;;;5071088;28;20032;-47
2023/01/09 04:34:57;;;;;;;21.70;12.48;;;5.00;99.90;;;;;;5072845;28;20067;-46
2023/01/09 04:37:23;;;;;;;19.77;11.27;;;4.90;99.90;;;;;;5073069;28;20495;-49
2023/01/09 04:39:50;;;;;;;19.77;12.10;;;4.60;99.90;;;;;;5073565;28;20029;-48
2023/01/09 04:42:16;;;;;;;18.98;11.93;;;5.00;99.90;;;;;;5073374;28;20050;-48
2023/01/09 04:44:41;;;;;;;19.80;12.25;;;5.00;99.90;;;;;;5080977;28;20047;-49
2023/01/09 04:47:07;;;;;;;22.20;12.13;;;4.70;99.90;;;;;;5087439;28;20067;-47
2023/01/09 04:49:33;;;;;;;20.65;11.82;;;5.00;99.90;;;;;;5073426;28;20123;-48
2023/01/09 04:51:59;;;;;;;20.45;11.63;;;4.40;99.90;;;;;;5072922;28;20131;-48
2023/01/09 04:54:25;;;;;;;19.88;11.88;;;4.50;99.90;;;;;;5077582;28;20036;-47
2023/01/09 04:56:50;;;;;;;19.38;11.55;;;5.20;99.90;;;;;;5073026;28;20036;-49
2023/01/09 04:59:16;;;;;;;21.02;12.10;;;5.00;99.90;;;;;;5072827;28;20051;-49
2023/01/09 05:01:42;;;;;;;20.58;11.13;;;4.40;99.90;;;;;;5072684;28;20066;-49
2023/01/09 05:04:07;;;;;;;18.27;11.05;;;4.80;99.90;;;;;;5072042;28;20119;-48
2023/01/09 05:06:34;;;;;;;21.08;12.48;;;4.90;99.90;;;;;;5072137;28;20040;-46
2023/01/09 05:09:00;;;;;;;17.27;11.70;;;5.00;99.90;;;;;;5080927;28;20080;-50
2023/01/09 05:11:26;;;;;;;19.50;12.32;;;5.00;99.90;;;;;;5070458;28;20039;-49
2023/01/09 05:13:52;;;;;;;22.63;12.48;;;4.80;99.90;;;;;;5085545;28;20051;-53
2023/01/09 05:16:19;;;;;;;25.50;13.40;;;4.80;99.90;;;;;;5072868;28;20403;-48
2023/01/09 05:18:44;;;;;;;22.13;13.57;;;4.60;99.90;;;;;;5071175;28;20041;-47
2023/01/09 05:21:10;;;;;;;22.65;12.90;;;4.40;99.90;;;;;;5072590;28;20042;-49
2023/01/09 05:23:37;;;;;;;22.00;13.75;;;4.40;99.90;;;;;;5072045;28;20047;-48
2023/01/09 05:26:03;;;;;;;23.38;14.55;;;5.00;99.90;;;;;;5091891;28;20031;-47
2023/01/09 05:28:29;;;;;;;24.23;14.02;;;4.50;99.90;;;;;;5087535;28;20114;-48
2023/01/09 05:30:55;;;;;;;24.90;15.05;;;4.30;99.90;;;;;;5072536;28;20483;-50
2023/01/09 05:33:21;;;;;;;27.10;14.88;;;4.30;99.90;;;;;;5072996;28;20044;-50
2023/01/09 05:35:47;;;;;;;26.23;14.10;;;4.40;99.90;;;;;;5071597;28;20078;-49
2023/01/09 05:38:12;;;;;;;22.27;13.68;;;4.60;99.90;;;;;;5072425;28;20036;-46
2023/01/09 05:40:38;;;;;;;24.63;13.27;;;4.40;99.90;;;;;;5072100;28;20102;-47
2023/01/09 05:43:04;;;;;;;26.27;13.75;;;4.60;99.90;;;;;;5070600;28;20067;-47
2023/01/09 05:45:29;;;;;;;21.85;12.88;;;4.70;99.90;;;;;;5070951;28;20080;-47
2023/01/09 05:47:56;;;;;;;22.80;13.00;;;4.70;99.90;;;;;;5071912;28;20040;-48
2023/01/09 05:50:22;;;;;;;23.00;13.50;;;4.10;99.90;;;;;;5071806;28;20075;-47
2023/01/09 05:52:47;;;;;;;26.33;12.75;;;4.20;99.90;;;;;;5070905;28;20068;-47
2023/01/09 05:55:13;;;;;;;23.23;12.57;;;4.10;99.90;;;;;;5071929;28;20043;-48
2023/01/09 05:57:39;;;;;;;22.75;12.90;;;4.70;99.90;;;;;;5071577;28;20028;-48
2023/01/09 06:00:05;;;;;;;18.60;11.75;;;4.10;99.90;;;;;;5079623;28;20048;-47
2023/01/09 06:02:31;;;;;;;20.42;11.77;;;4.40;99.90;;;;;;5077732;28;20055;-48
2023/01/09 06:04:56;;;;;;;19.45;11.45;;;4.00;99.90;;;;;;5036631;28;20040;-49
2023/01/09 06:07:22;;;;;;;19.98;11.40;;;4.20;99.90;;;;;;5070706;28;20043;-51
2023/01/09 06:09:48;;;;;;;24.60;11.98;;;4.20;99.90;;;;;;5071735;28;20028;-51
2023/01/09 06:12:13;;;;;;;21.83;12.05;;;4.30;99.90;;;;;;5071807;28;20410;-47
2023/01/09 06:14:39;;;;;;;20.35;11.07;;;4.00;99.90;;;;;;5071656;28;20495;-50
2023/01/09 06:17:05;;;;;;;22.25;11.73;;;4.30;99.90;;;;;;5070350;28;20495;-49
2023/01/09 06:19:30;;;;;;;20.05;11.32;;;4.50;99.90;;;;;;5070999;28;20106;-47
2023/01/09 06:21:56;;;;;;;23.00;10.70;;;4.70;99.90;;;;;;5071423;28;20120;-49
2023/01/09 06:24:22;;;;;;;20.20;10.93;;;4.40;99.90;;;;;;5071593;28;20032;-48
2023/01/09 06:26:47;;;;;;;19.13;10.57;;;4.40;99.90;;;;;;5053038;28;20423;-46
2023/01/09 06:29:13;;;;;;;20.77;10.52;;;4.10;99.90;;;;;;5070177;28;20036;-48
2023/01/09 06:31:39;;;;;;;17.10;9.63;;;4.90;99.90;;;;;;5071376;28;20499;-46
2023/01/09 06:34:04;;;;;;;18.83;9.15;;;4.80;99.90;;;;;;5069570;28;20072;-50
2023/01/09 06:36:30;;;;;;;18.00;8.98;;;4.90;99.90;;;;;;5052739;28;20055;-48
2023/01/09 06:38:56;;;;;;;22.00;8.70;;;4.90;99.90;;;;;;5069813;28;20141;-48
2023/01/09 06:41:21;;;;;;;15.75;8.82;;;4.80;99.90;;;;;;5071171;28;20559;-48
2023/01/09 06:43:47;;;;;;;16.27;8.32;;;4.50;99.90;;;;;;5071296;28;20032;-50
2023/01/09 06:46:13;;;;;;;16.25;7.97;;;4.80;99.90;;;;;;5069626;28;20040;-48
2023/01/09 06:48:38;;;;;;;13.85;7.32;;;5.20;99.90;;;;;;5071059;28;20094;-48
2023/01/09 06:51:04;;;;;;;13.00;6.90;;;5.30;99.90;;;;;;5070895;28;20395;-49
2023/01/09 06:53:30;;;;;;;18.88;6.82;;;;;;;;;;5075323;28;20046;-48
2023/01/09 06:55:56;;;;;;;18.77;6.50;;;5.30;99.90;;;;;;5091167;28;20071;-47
2023/01/09 06:58:22;;;;;;;13.00;6.75;;;5.70;99.90;;;;;;5090802;28;20470;-48
2023/01/09 07:00:48;;;;;;;13.40;6.13;;;5.80;99.90;;;;;;5079206;28;20048;-50
2023/01/09 07:03:18;;;;;;;15.68;6.60;;;5.70;99.90;;;;;;5070944;28;20528;-48
2023/01/09 07:05:45;;;;;;;14.50;6.20;;;5.70;99.90;;;;;;5070167;28;20043;-47
2023/01/09 07:08:11;;;;;;;13.68;6.95;;;5.40;99.90;;;;;;5070799;28;20106;-51
2023/01/09 07:10:37;;;;;;;15.63;6.90;;;6.00;99.90;;;;;;5070717;28;20041;-47
2023/01/09 07:13:02;;;;;;;14.63;6.82;;;6.00;99.90;;;;;;5070612;28;20036;-49
2023/01/09 07:15:28;;;;;;;11.38;6.80;;;5.10;99.90;;;;;;5077133;28;20032;-50
2023/01/09 07:17:54;;;;;;;13.02;6.15;;;5.30;99.90;;;;;;5070382;28;20041;-52
2023/01/09 07:20:20;;;;;;;13.52;7.32;;;5.90;99.90;;;;;;5070486;28;20036;-50
2023/01/09 07:22:46;;;;;;;11.63;6.63;;;5.80;99.90;;;;;;5074150;28;20077;-48
2023/01/09 07:25:12;;;;;;;11.07;6.60;;;5.90;99.90;;;;;;5070635;28;20060;-50
2023/01/09 07:27:38;;;;;;;14.25;6.78;;;5.80;99.90;;;;;;5069425;28;20428;-51
2023/01/09 07:30:05;;;;;;;12.95;7.22;;;5.90;99.90;;;;;;5054598;28;20139;-49
2023/01/09 07:32:32;;;;;;;11.98;5.85;;;5.10;99.90;;;;;;5074807;28;20083;-50
2023/01/09 07:34:57;;;;;;;13.07;7.28;;;5.20;99.90;;;;;;5072597;28;20067;-49
2023/01/09 07:37:23;;;;;;;13.95;6.35;;;5.60;99.90;;;;;;5076333;28;20471;-51
2023/01/09 07:39:49;;;;;;;12.27;6.57;;;5.40;99.90;;;;;;5083622;28;20051;-50
2023/01/09 07:42:15;;;;;;;11.38;7.07;;;5.60;99.90;;;;;;5074261;28;20044;-48
2023/01/09 07:44:41;;;;;;;14.30;6.13;;;5.50;99.90;;;;;;5072918;28;20037;-47
2023/01/09 07:47:07;;;;;;;14.07;6.82;;;5.20;99.90;;;;;;5074372;28;20048;-48
2023/01/09 07:49:32;;;;;;;11.55;6.00;;;5.30;99.90;;;;;;5074135;28;20029;-48
2023/01/09 07:51:58;;;;;;;14.48;6.68;;;5.50;99.90;;;;;;5073970;28;20031;-50
2023/01/09 07:54:24;;;;;;;14.98;6.13;;;5.70;99.90;;;;;;5074347;28;20040;-49
2023/01/09 07:56:49;;;;;;;12.82;6.15;;;5.70;99.90;;;;;;5074158;28;20102;-48
2023/01/09 07:59:15;;;;;;;13.88;5.90;;;5.30;99.90;;;;;;5074071;28;20047;-49
2023/01/09 08:01:41;;;;;;;11.75;5.03;;;5.80;99.90;;;;;;5074854;28;20483;-51
2023/01/09 08:04:06;;;;;;;11.45;5.47;;;5.30;99.90;;;;;;5072241;28;20398;-47
2023/01/09 08:06:32;;;;;;;12.18;5.82;;;5.30;99.90;;;;;;5074163;28;20036;-48
2023/01/09 08:08:58;;;;;;;10.32;5.22;;;5.50;99.90;;;;;;5073703;28;20475;-46
2023/01/09 08:11:25;;;;;;;11.55;5.72;;;5.80;99.90;;;;;;5073810;28;20426;-51
2023/01/09 08:13:50;;;;;;;11.52;5.00;;;5.60;99.90;;;;;;5072571;28;20045;-50
2023/01/09 08:16:16;;;;;;;12.88;5.68;;;5.80;99.90;;;;;;5073863;28;20438;-47
2023/01/09 08:18:42;;;;;;;13.75;4.70;;;5.50;99.90;;;;;;5062335;28;20048;-50
2023/01/09 08:21:10;;;;;;;14.32;5.78;;;5.60;99.90;;;;;;5061466;28;20496;-50
2023/01/09 08:23:36;;;;;;;14.15;5.72;;;5.80;99.90;;;;;;5063760;28;20037;-50
2023/01/09 08:26:02;;;;;;;12.40;5.35;;;5.90;99.90;;;;;;5062515;28;20537;-47
2023/01/09 08:28:28;;;;;;;10.82;4.95;;;5.90;99.90;;;;;;5060587;28;20036;-47
2023/01/09 08:30:54;;;;;;;13.95;4.72;;;5.80;99.90;;;;;;5063618;28;20028;-48
2023/01/09 08:33:21;;;;;;;13.40;5.18;;;5.80;99.90;;;;;;5062995;28;20135;-48
2023/01/09 08:35:46;;;;;;;15.25;4.50;;;5.50;99.90;;;;;;5063265;28;20064;-50
2023/01/09 08:38:12;;;;;;;8.70;4.20;;;5.50;99.90;;;;;;5061816;28;20434;-52
2023/01/09 08:40:38;;;;;;;10.98;5.55;;;6.00;99.90;;;;;;5062894;28;20602;-48
2023/01/09 08:48:32;;;;;;;10.18;4.68;;;5.70;99.90;;;;;;5048941;28;20036;-49
2023/01/09 08:50:58;;;;;;;14.77;4.70;;;6.00;99.90;;;;;;5059993;28;20051;-48
2023/01/09 08:53:24;;;;;;;11.90;4.45;;;5.60;99.90;;;;;;5063267;28;20040;-50
2023/01/09 08:55:50;;;;;;;11.98;5.30;;;6.30;99.90;;;;;;5061442;28;20075;-49
2023/01/09 08:58:15;;;;;;;12.82;5.88;;;6.00;99.90;;;;;;5059336;28;20419;-48
2023/01/09 09:00:41;;;;;;;10.93;4.88;;;5.70;99.90;;;;;;5057033;28;20032;-47
2023/01/09 09:03:10;;;;;;;12.02;5.38;;;6.00;99.90;;;;;;5060337;28;20040;-47
2023/01/09 09:05:36;;;;;;;14.35;4.47;;;6.20;99.90;;;;;;5074821;28;20040;-50
2023/01/09 09:08:02;;;;;;;9.90;4.40;;;6.10;99.90;;;;;;5060960;28;20498;-47
2023/01/09 09:10:28;;;;;;;12.90;4.78;;;5.90;99.90;;;;;;5061954;28;20036;-47
2023/01/09 09:12:55;;;;;;;16.23;5.28;;;6.20;99.90;;;;;;5061507;28;20047;-49
2023/01/09 09:15:22;;;;;;;9.85;4.97;;;6.20;99.90;;;;;;5060693;28;20051;-52
2023/01/09 09:18:00;;;;;;;11.35;4.30;;;6.10;99.90;;;;;;5062389;28;20422;-49
2023/01/09 09:20:29;;;;;;;10.52;4.30;;;6.10;99.90;;;;;;5062485;28;20045;-52
2023/01/09 09:22:55;;;;;;;19.90;5.47;;;6.10;99.90;;;;;;5061439;28;20397;-49
2023/01/09 09:25:21;;;;;;;12.65;4.72;;;5.80;99.90;;;;;;5063046;28;20036;-49
2023/01/09 09:27:47;;;;;;;13.32;5.00;;;6.40;99.90;;;;;;5061163;28;20047;-49
2023/01/09 09:30:15;;;;;;;11.98;4.15;;;5.80;99.90;;;;;;5061414;28;20081;-48
2023/01/09 09:32:41;;;;;;;9.48;4.55;;;6.30;99.90;;;;;;5059349;28;20054;-50
2023/01/09 09:35:07;;;;;;;16.35;5.53;;;6.10;99.90;;;;;;5059904;28;20056;-50
2023/01/09 09:37:33;;;;;;;16.05;5.53;;;6.40;99.90;;;;;;5062096;28;20053;-48
2023/01/09 09:39:59;;;;;;;13.60;4.95;;;5.90;99.90;;;;;;5056679;28;20499;-48
2023/01/09 09:45:36;;;;;;;11.73;4.50;;;6.10;99.90;;;;;;5050317;28;20128;-48
2023/01/09 09:48:11;;;;;;;11.13;4.88;;;5.90;99.90;;;;;;5053489;28;20037;-49
2023/01/09 09:50:37;;;;;;;11.80;5.25;;;6.00;99.90;;;;;;5050563;28;20116;-47
2023/01/09 09:53:17;;;;;;;13.63;5.47;;;6.10;99.90;;;;;;5050476;28;20049;-49
2023/01/09 09:55:45;;;;;;;12.57;5.35;;;6.10;99.90;;;;;;5053291;28;20037;-49
2023/01/09 09:58:29;;;;;;;15.95;5.90;;;5.00;99.90;;;;;;5051833;28;20094;-50
2023/01/09 10:00:57;;;;;;;15.43;5.93;;;6.60;99.90;;;;;;5053010;28;20172;-46
2023/01/09 10:03:47;;;;;;;12.70;5.80;;;6.00;99.90;;;;;;5054666;28;20037;-49
2023/01/09 10:06:30;;;;;;;9.40;5.65;;;6.40;99.90;;;;;;5057765;28;20089;-48
2023/01/09 10:09:12;;;;;;;11.25;6.20;;;6.20;99.90;;;;;;5060965;28;20047;-49
2023/01/09 10:11:48;;;;;;;15.25;7.15;;;6.00;99.90;;;;;;5062330;28;20102;-50
2023/01/09 10:14:14;;;;;;;14.02;6.88;;;6.30;99.90;;;;;;5061729;28;20037;-51
2023/01/09 10:17:16;;;;;;;13.70;6.63;;;6.70;99.90;;;;;;5060483;28;20032;-49
2023/01/09 10:20:03;;;;;;;14.10;7.00;;;6.10;99.90;;;;;;5006355;28;20077;-52
2023/01/09 10:22:58;;;;;;;11.35;6.38;;;6.50;99.90;;;;;;5056953;28;20045;-50
2023/01/09 10:25:33;;;;;;;13.90;7.05;;;6.20;99.90;;;;;;5061115;28;20039;-50
2023/01/09 10:28:06;;;;;;;14.15;7.78;;;6.70;99.90;;;;;;5060375;28;20641;-49
2023/01/09 10:30:37;;;;;;;15.23;7.30;;;6.10;99.90;;;;;;5060773;28;20089;-48
2023/01/09 10:33:30;;;;;;;15.75;7.53;;;6.70;99.90;;;;;;5060365;28;20105;-48
2023/01/09 10:36:09;;;;;;;15.45;7.75;;;6.60;99.90;;;;;;5059486;28;20064;-50
2023/01/09 10:38:39;;;;;;;14.20;7.93;;;6.70;99.90;;;;;;5061154;28;20036;-50
2023/01/09 10:41:15;;;;;;;14.70;8.07;;;6.50;99.90;;;;;;5058686;28;20492;-46
2023/01/09 10:43:53;;;;;;;16.05;9.05;;;6.20;99.90;;;;;;5058602;28;20029;-49
2023/01/09 10:46:37;;;;;;;18.98;9.88;;;6.30;99.90;;;;;;5062253;28;20033;-46
2023/01/09 10:49:13;;;;;;;19.10;9.55;;;6.40;99.90;;;;;;5056022;28;20098;-48
2023/01/09 10:51:47;;;;;;;18.27;9.88;;;6.90;99.90;;;;;;5058328;28;20036;-48
2023/01/09 10:54:17;;;;;;;15.00;9.18;;;6.90;99.90;;;;;;5060003;28;20032;-47
2023/01/09 10:57:12;;;;;;;15.27;10.10;;;6.90;99.90;;;;;;5058361;28;20041;-47
2023/01/09 10:59:41;;;;;;;18.45;10.38;;;6.60;99.90;;;;;;5054206;28;20032;-52
2023/01/09 11:02:28;;;;;;;20.27;10.82;;;6.70;99.90;;;;;;5057225;28;20385;-49
2023/01/09 11:04:53;;;;;;;18.58;10.35;;;6.60;99.90;;;;;;5057396;28;20074;-50
2023/01/09 11:07:22;;;;;;;17.40;11.38;;;7.00;99.90;;;;;;5059423;28;20074;-51
2023/01/09 11:10:10;;;;;;;21.67;11.88;;;6.50;99.90;;;;;;5057107;28;20087;-52
2023/01/09 11:12:37;;;;;;;20.05;11.70;;;6.50;99.90;;;;;;5056568;28;20507;-51
2023/01/09 11:15:15;;;;;;;20.25;12.73;;;6.50;99.90;;;;;;5056790;28;20079;-47
2023/01/09 11:17:45;;;;;;;19.65;12.38;;;7.00;99.90;;;;;;5057481;28;20040;-51
2023/01/09 11:20:15;;;;;;;23.17;12.40;;;7.00;99.90;;;;;;5060745;28;20037;-47
2023/01/09 11:22:50;;;;;;;22.83;12.77;;;6.90;99.90;;;;;;5060633;28;20044;-52
2023/01/09 11:25:20;;;;;;;23.70;13.07;;;7.00;99.90;;;;;;5059560;28;20035;-48
2023/01/09 11:28:15;;;;;;;23.90;12.73;;;7.00;99.90;;;;;;5060116;28;20039;-46
2023/01/09 11:30:59;;;;;;;27.75;14.35;;;6.80;99.90;;;;;;5048449;28;20049;-49
2023/01/09 11:33:31;;;;;;;19.67;12.18;;;6.80;99.90;;;;;;5060304;28;20097;-48
2023/01/09 11:35:58;;;;;;;22.02;13.45;;;7.30;99.90;;;;;;5057488;28;20064;-48
2023/01/09 11:38:25;;;;;;;23.17;13.75;;;7.00;99.90;;;;;;5057894;28;20049;-48
2023/01/09 11:40:55;;;;;;;25.02;14.35;;;6.90;99.90;;;;;;5059312;28;20087;-50
2023/01/09 11:43:31;;;;;;;20.80;14.18;;;7.00;99.90;;;;;;5057915;28;20044;-50
2023/01/09 11:46:03;;;;;;;21.15;14.13;;;7.30;99.90;;;;;;5058888;28;20028;-48
2023/01/09 11:48:53;;;;;;;23.13;14.13;;;7.50;99.90;;;;;;5055870;28;20033;-49
2023/01/09 11:51:31;;;;;;;22.35;13.85;;;7.40;99.90;;;;;;5058332;28;20047;-52
2023/01/09 11:54:06;;;;;;;26.48;14.20;;;7.60;99.90;;;;;;5057702;28;20479;-51
2023/01/09 11:56:32;;;;;;;22.73;15.50;;;7.20;99.90;;;;;;5057800;28;20487;-47
2023/01/09 11:58:59;;;;;;;22.42;14.10;;;7.70;99.90;;;;;;5058026;28;20050;-48
2023/01/09 12:01:56;;;;;;;22.15;13.50;;;7.70;99.90;;;;;;5057013;28;20041;-50
2023/01/09 12:04:36;;;;;;;20.80;13.30;;;7.70;99.90;;;;;;5053317;28;20344;-51
2023/01/09 12:07:33;;;;;;;21.52;13.18;;;7.70;99.90;;;;;;5058016;28;20037;-50
2023/01/09 12:10:08;;;;;;;19.17;12.75;;;7.70;99.90;;;;;;5057696;28;20064;-46
2023/01/09 12:12:51;;;;;;;16.00;10.82;;;7.60;99.90;;;;;;5056616;28;20053;-50
2023/01/09 12:15:32;;;;;;;17.77;10.55;;;7.40;99.90;;;;;;5059064;28;20083;-51
2023/01/09 12:18:39;;;;;;;17.23;9.98;;;7.60;99.90;;;;;;5061074;28;20404;-50
2023/01/09 12:21:33;;;;;;;14.77;10.07;;;7.60;99.90;;;;;;5060047;28;20480;-52
2023/01/09 12:24:27;;;;;;;17.00;9.65;;;7.50;99.90;;;;;;5060533;28;20516;-51
2023/01/09 12:27:30;;;;;;;17.83;10.23;;;7.60;99.90;;;;;;5067936;28;20071;-52
2023/01/09 12:29:58;;;;;;;15.93;9.52;;;7.60;99.90;;;;;;5070960;28;20037;-46
2023/01/09 12:32:45;;;;;;;16.08;9.02;;;7.50;99.90;;;;;;5070309;28;20136;-48
2023/01/09 12:35:40;;;;;;;20.13;9.45;;;7.40;99.90;;;;;;5070659;28;20052;-52
2023/01/09 12:38:20;;;;;;;19.67;9.85;;;7.60;99.90;;;;;;5071647;28;20055;-48
2023/01/09 12:41:02;;;;;;;18.73;8.63;;;7.60;99.90;;;;;;5073202;28;20483;-48
2023/01/09 12:43:42;;;;;;;18.02;7.95;;;7.60;99.90;;;;;;5080558;28;20029;-48
2023/01/09 12:46:19;;;;;;;14.50;7.05;;;7.60;99.90;;;;;;5072480;28;20075;-51
2023/01/09 12:49:04;;;;;;;15.77;6.30;;;7.50;99.90;;;;;;5071720;28;20075;-47
2023/01/09 12:51:52;;;;;;;16.67;5.93;;;7.70;99.90;;;;;;5072072;28;20502;-46
2023/01/09 12:54:33;;;;;;;13.48;5.68;;;7.50;99.90;;;;;;5071744;28;20047;-51
2023/01/09 12:57:23;;;;;;;16.17;4.95;;;7.60;99.90;;;;;;5072125;28;20037;-50
2023/01/09 13:00:01;;;;;;;16.75;4.43;;;7.70;99.90;;;;;;5072203;28;20041;-50
2023/01/09 13:02:34;;;;;;;11.85;3.65;;;7.60;99.90;;;;;;5067742;28;20044;-48
2023/01/09 13:05:07;;;;;;;17.73;3.75;;;7.80;99.90;;;;;;5071594;28;20052;-49
2023/01/09 13:07:43;;;;;;;16.35;3.47;;;7.70;99.90;;;;;;5070634;28;20082;-49
2023/01/09 13:10:18;;;;;;;12.07;3.20;;;7.70;99.90;;;;;;5072769;28;20526;-51
2023/01/09 13:12:46;;;;;;;12.60;3.03;;;7.80;99.90;;;;;;5072778;28;20040;-52
2023/01/09 13:15:26;;;;;;;10.25;2.63;;;7.90;99.90;;;;;;5068751;28;20044;-51
2023/01/09 13:18:03;;;;;;;14.30;3.45;;;8.00;99.90;;;;;;5071161;28;20127;-51